Soro, Denmark
Current Conditions -  °F | °C
As of 3:50 PM on Thursday 23 Oct 2014 (Local Time) from EKRK Reporting Station
Overcast Overcast  
Wind Chill: 52°   Ceiling: 2700
Heat Index: 52°   Visibility: 6mi
Dew Point: 48°   Wind: 12mph
Humidity: 88%   Direction: 140°SE
Pressure: 30.15"   Gusts: NA
Location:  55.43°N, 11.56°E
Report Text: EKRK 231350Z AUTO 14010KT 9999NDV FEW014/// SCT019///BKN027/// OVC035/// 11/09 Q1021
Loading
Personal Weather Stations






























Interactive Weather Map
Tropical Storm Tracking
New forecast layout! Learn more

10-Day Weather Forecast

Advertisements
Track Severe Weather on mobile